Time;durP1;ratioP1;P1;durP2;ratioP2;P2;SDS_P1;SDS_P2;PMS_P1;PMS_P2;Temp;Humidity;BMP_temperature;BMP_pressure;BME280_temperature;BME280_humidity;BME280_pressure;Samples;Min_cycle;Max_cycle;Signal;HPM_P1;HPM_P2
2022/04/02 00:00:59;;;;;;;3.33;2.03;;;2.80;99.90;;;3.39;61.37;-19842.22;5003855;28;20303;-58
2022/04/02 00:03:29;;;;;;;5.93;1.97;;;2.60;99.90;;;3.22;62.21;-19836.41;5002087;28;20227;-57
2022/04/02 00:05:57;;;;;;;3.30;1.90;;;2.60;99.90;;;3.45;61.58;-19844.28;5001950;28;20205;-53
2022/04/02 00:08:25;;;;;;;3.07;2.23;;;2.60;99.90;;;3.42;61.86;-19843.25;5001734;28;20302;-59
2022/04/02 00:10:53;;;;;;;2.87;2.00;;;2.60;99.90;;;3.28;62.08;-19838.47;5010079;28;20234;-55
2022/04/02 00:13:22;;;;;;;3.00;1.80;;;2.50;99.90;;;3.33;61.91;-19840.19;5012674;28;20260;-58
2022/04/02 00:15:50;;;;;;;3.83;2.10;;;2.60;99.90;;;3.30;62.34;-19839.16;5011594;28;20227;-57
2022/04/02 00:18:18;;;;;;;3.80;2.13;;;2.50;99.90;;;3.41;61.59;-19842.91;5009796;28;20290;-58
2022/04/02 00:20:47;;;;;;;4.67;2.50;;;2.50;99.90;;;3.19;62.02;-19835.38;5013214;28;20203;-56
2022/04/02 00:26:02;;;;;;;2.50;1.83;;;2.40;99.90;;;3.00;63.86;-19828.88;5012374;28;20222;-57
2022/04/02 00:28:37;;;;;;;2.60;1.77;;;2.30;99.90;;;3.01;63.42;-19829.41;5012205;28;20619;-56
2022/04/02 00:31:07;;;;;;;4.67;2.17;;;2.30;99.90;;;2.82;63.75;-19822.72;5012431;28;20257;-57
2022/04/02 00:33:36;;;;;;;3.37;2.27;;;2.20;99.90;;;2.93;63.79;-19826.50;5012336;28;20219;-57
2022/04/02 00:36:07;;;;;;;3.77;2.27;;;2.20;99.90;;;2.85;64.24;-19823.94;5013128;28;20223;-58
2022/04/02 00:38:36;;;;;;;3.17;1.80;;;2.10;99.90;;;2.82;64.15;-19822.91;5012535;28;20208;-56
2022/04/02 00:41:04;;;;;;;2.87;2.37;;;2.10;99.90;;;2.70;64.54;-19818.63;5012418;28;20274;-59
2022/04/02 00:43:35;;;;;;;3.20;2.03;;;2.00;99.90;;;2.34;66.29;-19806.66;5011936;28;20670;-56
2022/04/02 00:46:07;;;;;;;2.20;1.90;;;1.90;99.90;;;2.48;65.64;-19811.47;5012004;28;20257;-54
2022/04/02 00:48:36;;;;;;;3.10;2.33;;;1.80;99.90;;;2.58;65.36;-19814.53;5002509;28;20223;-57
2022/04/02 00:51:08;;;;;;;4.10;2.10;;;1.80;99.90;;;2.53;65.15;-19813.00;4993084;28;20766;-53
2022/04/02 00:53:39;;;;;;;2.37;1.83;;;1.80;99.90;;;2.43;65.56;-19809.75;4992627;28;20200;-55
2022/04/02 00:56:07;;;;;;;2.67;2.00;;;1.70;99.90;;;2.48;65.43;-19811.47;4992180;28;20311;-57
2022/04/02 00:58:36;;;;;;;4.17;2.13;;;1.80;99.90;;;2.43;66.32;-19809.56;4991869;28;20786;-55
2022/04/02 01:01:04;;;;;;;3.47;2.30;;;1.70;99.90;;;2.23;66.57;-19802.91;4992440;28;20290;-58
2022/04/02 01:03:32;;;;;;;2.50;1.77;;;1.60;99.90;;;2.23;66.87;-19802.72;4992317;28;20254;-56
2022/04/02 01:06:01;;;;;;;2.57;1.90;;;1.60;99.90;;;2.41;66.49;-19809.06;4992028;28;20619;-57
2022/04/02 01:08:30;;;;;;;4.07;1.70;;;1.60;99.90;;;2.18;67.11;-19801.03;4991717;28;20234;-57
2022/04/02 01:10:58;;;;;;;4.57;2.10;;;1.60;99.90;;;2.13;66.95;-19799.47;4998592;28;20338;-56
2022/04/02 01:13:27;;;;;;;4.43;1.47;;;1.50;99.90;;;2.14;67.21;-19799.66;5011734;28;20285;-57
2022/04/02 01:15:56;;;;;;;2.70;1.83;;;1.50;99.90;;;2.17;68.00;-19800.84;5011038;28;20230;-56
2022/04/02 01:18:24;;;;;;;3.03;1.93;;;1.50;99.90;;;2.25;67.30;-19803.41;5011090;28;20682;-54
2022/04/02 01:20:53;;;;;;;4.93;2.37;;;1.50;99.90;;;2.23;67.17;-19802.72;5012383;28;20283;-52
2022/04/02 01:23:29;;;;;;;3.27;2.13;;;1.50;99.90;;;2.19;67.06;-19801.53;5011573;28;20661;-58
2022/04/02 01:26:00;;;;;;;2.93;1.90;;;1.40;99.90;;;2.42;66.82;-19809.22;5011553;28;20321;-55
2022/04/02 01:28:33;;;;;;;2.03;1.73;;;1.50;99.90;;;2.29;67.29;-19804.97;5011305;28;20229;-57
2022/04/02 01:31:06;;;;;;;6.50;1.87;;;1.60;99.90;;;2.35;67.34;-19806.84;5011438;28;20260;-57
2022/04/02 01:33:37;;;;;;;3.30;1.90;;;1.50;99.90;;;2.43;66.80;-19809.56;5011694;28;20246;-57
2022/04/02 01:36:07;;;;;;;3.37;2.00;;;1.50;99.90;;;2.39;66.68;-19808.38;5011311;28;20497;-59
2022/04/02 01:38:36;;;;;;;3.50;2.13;;;1.50;99.90;;;2.34;66.34;-19806.50;5011818;28;20212;-56
2022/04/02 01:41:04;;;;;;;1.90;1.70;;;1.60;99.90;;;2.23;67.04;-19802.91;5011733;28;20223;-58
2022/04/02 01:43:33;;;;;;;3.30;1.80;;;1.50;99.90;;;2.17;66.74;-19800.84;5011223;28;20242;-57
2022/04/02 01:46:03;;;;;;;4.00;1.90;;;1.50;99.90;;;2.39;66.50;-19808.38;5010642;28;20318;-55
2022/04/02 01:48:32;;;;;;;2.60;1.90;;;1.50;99.90;;;2.24;66.74;-19803.25;5010861;28;20718;-56
2022/04/02 01:51:00;;;;;;;2.20;1.60;;;1.50;99.90;;;2.17;66.94;-19800.84;5012066;28;20328;-52
2022/04/02 01:53:29;;;;;;;2.73;2.10;;;1.50;99.90;;;2.21;66.69;-19802.22;5011031;28;20251;-58
2022/04/02 01:55:59;;;;;;;3.47;1.80;;;1.50;99.90;;;2.16;66.65;-19800.50;5010700;28;20313;-56
2022/04/02 01:58:28;;;;;;;6.00;2.10;;;1.40;99.90;;;2.14;67.58;-19799.81;5010799;28;20711;-57
2022/04/02 02:00:56;;;;;;;3.23;2.10;;;1.40;99.90;;;2.17;67.28;-19800.84;5010408;28;20309;-54
2022/04/02 02:03:24;;;;;;;4.20;2.10;;;1.40;99.90;;;2.01;67.61;-19795.38;5010962;28;20241;-55
2022/04/02 02:05:53;;;;;;;3.00;2.20;;;1.40;99.90;;;2.12;66.99;-19798.97;5010934;28;20674;-57
2022/04/02 02:08:23;;;;;;;3.57;1.70;;;1.40;99.90;;;2.14;67.08;-19799.66;5010749;28;20257;-54
2022/04/02 02:10:50;;;;;;;4.40;1.90;;;1.40;99.90;;;2.09;66.89;-19797.94;5011086;28;20313;-57
2022/04/02 02:13:20;;;;;;;4.40;2.00;;;1.40;99.90;;;2.10;66.94;-19798.47;5010768;28;20305;-53
2022/04/02 02:15:48;;;;;;;3.70;1.73;;;1.30;99.90;;;2.24;66.23;-19803.25;5010044;28;20786;-55
2022/04/02 02:18:16;;;;;;;4.17;2.20;;;1.40;99.90;;;2.09;67.00;-19798.13;5013376;28;20652;-55
2022/04/02 02:20:44;;;;;;;3.87;1.90;;;1.40;99.90;;;2.18;66.76;-19801.19;5015676;28;20218;-55
2022/04/02 02:23:12;;;;;;;3.17;1.73;;;1.40;99.90;;;2.19;66.25;-19801.53;5014799;28;20683;-58
2022/04/02 02:25:40;;;;;;;4.93;2.00;;;1.40;99.90;;;1.98;66.83;-19794.19;5014692;28;20223;-55
2022/04/02 02:28:08;;;;;;;3.90;1.90;;;1.40;99.90;;;1.97;66.96;-19794.00;5014832;28;20249;-53
2022/04/02 02:30:38;;;;;;;2.30;1.90;;;1.40;99.90;;;2.04;67.10;-19796.41;5014386;28;20231;-54
2022/04/02 02:35:51;;;;;;;2.90;2.00;;;1.30;99.90;;;2.11;66.11;-19798.63;5014913;28;20209;-57
2022/04/02 02:38:21;;;;;;;3.93;2.50;;;1.40;99.90;;;1.92;67.11;-19792.31;5014266;28;20233;-55
2022/04/02 02:40:51;;;;;;;2.93;1.90;;;1.30;99.90;;;1.63;67.76;-19782.38;5014613;28;20309;-58
2022/04/02 02:43:20;;;;;;;3.70;2.00;;;1.10;99.90;;;1.79;67.80;-19787.88;5014362;28;20648;-57
2022/04/02 02:45:50;;;;;;;2.77;1.90;;;1.20;99.90;;;1.84;67.96;-19789.41;5013850;28;20226;-57
2022/04/02 02:48:18;;;;;;;2.30;2.00;;;1.10;99.90;;;1.75;68.53;-19786.50;5014402;28;20195;-59
2022/04/02 02:50:47;;;;;;;2.53;2.00;;;1.20;99.90;;;2.02;66.78;-19795.72;5014805;28;20297;-56
2022/04/02 02:53:15;;;;;;;3.07;1.77;;;1.30;99.90;;;2.14;66.50;-19799.81;5014226;28;20621;-55
2022/04/02 02:55:44;;;;;;;2.23;2.03;;;1.40;99.90;;;1.87;67.17;-19790.59;5013806;28;20398;-55
2022/04/02 02:58:12;;;;;;;3.77;1.90;;;1.30;99.90;;;2.00;67.46;-19795.03;5014267;28;20261;-56
2022/04/02 03:00:41;;;;;;;2.23;1.97;;;1.30;99.90;;;2.00;67.07;-19794.88;5014065;28;20219;-55
2022/04/02 03:03:11;;;;;;;3.03;2.07;;;1.40;99.90;;;2.08;67.51;-19797.78;5013535;28;20302;-57
2022/04/02 03:05:39;;;;;;;2.70;2.13;;;1.30;99.90;;;1.96;67.78;-19793.50;5014245;28;20213;-53
2022/04/02 03:08:08;;;;;;;2.00;1.80;;;1.30;99.90;;;1.73;68.28;-19785.81;5013830;28;20600;-56
2022/04/02 03:10:36;;;;;;;3.60;2.10;;;1.20;99.90;;;1.69;68.83;-19784.28;5013634;28;20305;-52
2022/04/02 03:13:06;;;;;;;2.80;2.20;;;1.10;99.90;;;1.68;68.84;-19783.94;5014408;28;20234;-55
2022/04/02 03:15:34;;;;;;;4.57;2.33;;;1.10;99.90;;;1.91;68.29;-19791.97;5011424;28;20256;-56
2022/04/02 03:18:05;;;;;;;2.70;2.00;;;1.20;99.90;;;1.61;69.61;-19781.69;5014149;28;20254;-56
2022/04/02 03:20:37;;;;;;;2.73;2.23;;;1.10;99.90;;;1.92;69.05;-19792.31;5014087;28;20294;-57
2022/04/02 03:23:06;;;;;;;3.47;2.10;;;1.20;99.90;;;1.77;69.14;-19787.00;5013826;28;20232;-54
2022/04/02 03:25:34;;;;;;;3.47;2.17;;;1.50;99.90;;;1.84;69.23;-19789.56;5013626;28;20227;-56
2022/04/02 03:28:03;;;;;;;3.73;2.13;;;1.20;99.90;;;1.70;69.85;-19784.78;5013228;28;20258;-53
2022/04/02 03:30:32;;;;;;;3.07;2.13;;;1.10;99.90;;;1.70;70.31;-19784.78;5012919;28;20733;-56
2022/04/02 03:33:00;;;;;;;4.57;1.90;;;1.10;99.90;;;1.56;70.61;-19780.00;5014511;28;20231;-57
2022/04/02 03:35:28;;;;;;;2.60;2.07;;;1.00;99.90;;;1.87;69.47;-19790.59;5013375;28;20320;-57
2022/04/02 03:37:57;;;;;;;3.03;2.10;;;1.10;99.90;;;1.76;69.82;-19786.66;5013074;28;20241;-57
2022/04/02 03:40:27;;;;;;;5.17;2.00;;;1.10;99.90;;;1.51;71.43;-19778.28;5013490;28;20347;-55
2022/04/02 03:42:55;;;;;;;1.90;1.70;;;1.00;99.90;;;1.83;70.55;-19789.22;5013520;28;20742;-56
2022/04/02 03:45:24;;;;;;;3.13;2.10;;;1.10;99.90;;;1.66;71.13;-19783.25;5012748;28;20235;-56
2022/04/02 03:47:52;;;;;;;3.53;2.00;;;1.00;99.90;;;1.85;71.12;-19789.75;5013581;28;20619;-58
2022/04/02 03:50:20;;;;;;;2.40;2.20;;;1.00;99.90;;;1.71;71.35;-19784.97;5013126;28;20226;-54
2022/04/02 03:52:48;;;;;;;3.13;2.00;;;1.10;99.90;;;1.68;72.27;-19784.09;5013398;28;20234;-59
2022/04/02 03:55:18;;;;;;;2.20;1.93;;;1.00;99.90;;;1.65;72.38;-19783.06;5013009;28;20220;-57
2022/04/02 03:57:47;;;;;;;2.30;2.10;;;1.00;99.90;;;1.76;72.22;-19786.84;5013008;28;20265;-56
2022/04/02 04:00:18;;;;;;;2.93;1.90;;;1.00;99.90;;;1.57;73.00;-19780.16;5012381;28;20284;-57
2022/04/02 04:02:47;;;;;;;2.60;2.30;;;0.90;99.90;;;1.55;73.58;-19779.66;5014132;28;20501;-56
2022/04/02 04:05:15;;;;;;;3.90;2.33;;;0.90;99.90;;;1.50;73.91;-19777.78;5012648;28;20232;-55
2022/04/02 04:07:43;;;;;;;2.60;2.20;;;0.90;99.90;;;1.60;73.66;-19781.38;5012503;28;20230;-53
2022/04/02 04:10:11;;;;;;;3.27;1.90;;;0.90;99.90;;;1.72;73.54;-19785.47;5012962;28;20241;-57
2022/04/02 04:12:47;;;;;;;2.97;2.10;;;1.00;99.90;;;1.58;73.94;-19780.69;5013234;28;20286;-56
2022/04/02 04:15:15;;;;;;;5.27;2.20;;;1.00;99.90;;;1.69;74.26;-19784.28;5012089;28;20761;-57
2022/04/02 04:17:42;;;;;;;4.67;2.13;;;1.00;99.90;;;1.64;74.22;-19782.72;5012813;28;20316;-58
2022/04/02 04:20:11;;;;;;;2.63;2.03;;;1.00;99.90;;;1.69;74.56;-19784.44;5012381;28;20234;-57
2022/04/02 04:22:39;;;;;;;3.60;1.93;;;1.00;99.90;;;1.52;74.87;-19778.63;5012244;28;20241;-55
2022/04/02 04:25:10;;;;;;;3.97;2.20;;;0.90;99.90;;;1.81;74.04;-19788.38;5012231;28;20262;-57
2022/04/02 04:27:39;;;;;;;4.80;2.50;;;1.10;99.90;;;1.61;74.73;-19781.53;5012575;28;20229;-56
2022/04/02 04:30:10;;;;;;;4.70;2.30;;;1.00;99.90;;;1.67;74.76;-19783.59;5011925;28;20202;-58
2022/04/02 04:32:39;;;;;;;2.47;2.00;;;1.00;99.90;;;1.55;75.19;-19779.47;5012969;28;20307;-55
2022/04/02 04:35:09;;;;;;;3.53;2.63;;;0.90;99.90;;;1.41;76.19;-19774.88;5012171;28;20801;-57
2022/04/02 04:37:38;;;;;;;3.53;2.30;;;0.70;99.90;;;1.46;77.13;-19776.56;5011750;28;20254;-56
2022/04/02 04:40:08;;;;;;;5.33;2.47;;;0.70;99.90;;;1.54;75.90;-19779.31;5011582;28;20260;-52
2022/04/02 04:42:36;;;;;;;3.40;2.00;;;0.80;99.90;;;1.71;75.49;-19785.13;5012289;28;20565;-52
2022/04/02 04:45:05;;;;;;;4.40;2.23;;;0.80;99.90;;;1.68;76.19;-19783.94;5012155;28;20715;-58
2022/04/02 04:47:35;;;;;;;3.87;2.43;;;0.80;99.90;;;1.52;76.72;-19778.47;5012005;28;20224;-56
2022/04/02 04:50:03;;;;;;;3.50;2.40;;;0.80;99.90;;;1.48;77.40;-19777.25;5011781;28;20230;-54
2022/04/02 04:52:31;;;;;;;3.00;2.10;;;0.80;99.90;;;1.49;77.51;-19777.59;5011775;28;20241;-57
2022/04/02 04:55:00;;;;;;;2.87;2.10;;;0.70;99.90;;;1.73;76.63;-19785.81;5011434;28;20234;-56
2022/04/02 04:57:28;;;;;;;3.20;2.33;;;0.80;99.90;;;1.61;77.01;-19781.69;5011462;28;20768;-57
2022/04/02 04:59:56;;;;;;;3.23;2.20;;;0.80;99.90;;;1.83;75.81;-19789.22;5012255;28;20206;-57
2022/04/02 05:02:24;;;;;;;3.90;2.53;;;0.90;99.90;;;1.68;76.93;-19784.09;5011810;28;20230;-55
2022/04/02 05:04:54;;;;;;;3.03;2.30;;;0.90;99.90;;;1.48;77.64;-19777.25;5011636;28;20319;-55
2022/04/02 05:07:29;;;;;;;3.00;2.37;;;0.80;99.90;;;1.66;77.95;-19783.41;5011346;28;20306;-55
2022/04/02 05:09:57;;;;;;;3.03;2.30;;;0.90;99.90;;;1.70;77.10;-19784.59;5011687;28;20309;-56
2022/04/02 05:12:25;;;;;;;2.40;2.17;;;0.90;99.90;;;1.63;78.14;-19782.38;5011511;28;20466;-56
2022/04/02 05:14:53;;;;;;;2.97;2.10;;;0.90;99.90;;;1.68;77.98;-19784.09;5011653;28;20206;-58
2022/04/02 05:17:21;;;;;;;3.73;2.40;;;0.90;99.90;;;1.95;77.71;-19793.34;5011141;28;20265;-57
2022/04/02 05:19:49;;;;;;;4.63;2.53;;;0.90;99.90;;;1.90;77.24;-19791.44;5011371;28;20713;-54
2022/04/02 05:22:18;;;;;;;3.13;2.33;;;1.00;99.90;;;1.90;77.80;-19791.44;5011232;28;20234;-55
2022/04/02 05:24:46;;;;;;;3.30;2.17;;;1.00;99.90;;;2.09;77.36;-19798.13;5011449;28;20235;-58
2022/04/02 05:27:14;;;;;;;3.17;2.50;;;1.00;99.90;;;1.84;77.86;-19789.41;5011489;28;20296;-57
2022/04/02 05:29:43;;;;;;;3.33;2.40;;;1.00;99.90;;;1.88;77.83;-19790.94;5011339;28;20288;-56
2022/04/02 05:32:11;;;;;;;5.47;2.30;;;1.10;99.90;;;1.92;77.78;-19792.31;5011420;28;20251;-56
2022/04/02 05:34:39;;;;;;;3.33;2.13;;;1.00;99.90;;;1.87;78.69;-19790.59;5010982;28;20234;-55
2022/04/02 05:37:08;;;;;;;5.37;2.70;;;1.00;99.90;;;2.07;77.46;-19797.25;5010857;28;20313;-54
2022/04/02 05:39:37;;;;;;;3.63;2.40;;;1.20;99.90;;;1.96;78.96;-19793.50;5011099;28;20300;-55
2022/04/02 05:42:06;;;;;;;5.40;2.73;;;1.20;99.90;;;2.08;77.84;-19797.59;5011743;28;20202;-56
2022/04/02 05:44:34;;;;;;;4.33;2.70;;;1.20;99.90;;;2.16;77.80;-19800.50;5011215;28;20227;-57
2022/04/02 05:47:02;;;;;;;4.60;2.50;;;1.30;99.90;;;2.15;78.51;-19800.00;5010984;28;20760;-56
2022/04/02 05:49:48;;;;;;;4.30;2.60;;;1.30;99.90;;;2.16;78.05;-19800.34;5010482;28;20328;-57
2022/04/02 05:52:16;;;;;;;2.60;2.20;;;1.30;99.90;;;2.29;78.03;-19804.97;5010985;28;20316;-58
2022/04/02 05:54:45;;;;;;;5.53;2.50;;;1.40;99.90;;;2.43;77.90;-19809.56;5010748;28;20781;-55
2022/04/02 05:57:13;;;;;;;4.53;2.53;;;1.50;99.90;;;2.39;77.64;-19808.19;5010920;28;20237;-57
2022/04/02 05:59:42;;;;;;;5.07;2.80;;;1.50;99.90;;;2.36;77.61;-19807.34;5011365;28;20238;-56
2022/04/02 06:02:13;;;;;;;3.73;2.40;;;1.60;99.90;;;2.62;78.30;-19816.06;5011101;28;20233;-58
2022/04/02 06:04:41;;;;;;;3.60;2.73;;;1.60;99.90;;;2.63;77.69;-19816.25;5010612;28;20325;-56
2022/04/02 06:07:11;;;;;;;4.53;2.60;;;1.70;99.90;;;2.77;76.82;-19821.03;5010396;28;20248;-55
2022/04/02 06:09:39;;;;;;;6.57;2.30;;;1.70;99.90;;;2.78;76.70;-19821.38;5010862;28;20230;-58
2022/04/02 06:12:09;;;;;;;5.33;2.33;;;1.80;99.90;;;2.94;76.77;-19826.84;5011248;28;20213;-58
2022/04/02 06:14:37;;;;;;;4.43;3.20;;;1.90;99.90;;;2.92;76.54;-19826.16;5011565;28;20179;-56
2022/04/02 06:17:05;;;;;;;4.37;2.50;;;1.90;99.90;;;3.09;75.56;-19832.13;5010815;28;20237;-59
2022/04/02 06:19:33;;;;;;;4.10;2.10;;;2.00;99.90;;;3.10;76.06;-19832.47;5010601;28;20231;-56
2022/04/02 06:22:06;;;;;;;3.40;2.13;;;2.10;99.90;;;3.19;75.21;-19835.38;5010814;28;20317;-55
2022/04/02 06:24:34;;;;;;;4.03;1.93;;;2.20;99.90;;;3.08;75.86;-19831.78;5010853;28;20231;-56
2022/04/02 06:27:03;;;;;;;3.57;2.13;;;2.20;99.90;;;3.36;75.03;-19841.19;5008280;28;20257;-54
2022/04/02 06:29:32;;;;;;;2.83;2.37;;;2.30;99.90;;;3.29;74.52;-19838.81;4997284;28;20825;-56
2022/04/02 06:32:00;;;;;;;3.97;2.30;;;2.30;99.90;;;3.35;75.25;-19840.84;5011047;28;20259;-55
2022/04/02 06:34:28;;;;;;;5.90;2.43;;;2.30;99.90;;;3.49;74.04;-19845.63;5010522;28;20638;-57
2022/04/02 06:36:56;;;;;;;6.53;2.70;;;2.50;99.90;;;3.64;74.44;-19850.94;5010749;28;20322;-57
2022/04/02 06:39:24;;;;;;;3.67;2.60;;;2.50;99.90;;;3.79;72.93;-19855.72;5010355;28;20317;-59
2022/04/02 06:41:55;;;;;;;4.60;2.10;;;2.70;99.90;;;3.57;73.11;-19848.53;5010826;28;20687;-57
2022/04/02 06:44:23;;;;;;;5.00;2.33;;;2.60;99.90;;;3.51;73.41;-19846.31;5010005;28;20223;-58
2022/04/02 06:46:52;;;;;;;3.30;2.00;;;2.60;99.90;;;3.52;73.72;-19846.66;5010531;28;20238;-55
2022/04/02 06:49:20;;;;;;;3.40;2.00;;;2.50;99.90;;;3.69;73.35;-19852.47;5009818;28;20316;-59
2022/04/02 06:51:48;;;;;;;3.47;2.20;;;2.60;99.90;;;3.80;72.67;-19856.25;5010421;28;20227;-59
2022/04/02 06:54:16;;;;;;;2.93;2.03;;;2.80;99.90;;;3.89;72.24;-19859.31;5009927;28;20674;-56
2022/04/02 06:56:45;;;;;;;3.77;2.40;;;2.80;99.90;;;3.87;73.03;-19858.63;5010990;28;20207;-59
2022/04/02 06:59:13;;;;;;;3.50;2.10;;;2.90;99.90;;;3.77;72.57;-19855.03;5009724;28;20230;-56
2022/04/02 07:01:41;;;;;;;4.07;2.37;;;2.80;99.90;;;3.91;72.20;-19860.00;5010201;28;20236;-58
2022/04/02 07:04:10;;;;;;;4.63;2.00;;;2.90;99.90;;;3.95;71.67;-19861.38;5011469;28;20229;-55
2022/04/02 07:06:44;;;;;;;4.37;2.00;;;2.90;99.90;;;3.97;71.62;-19862.06;5013440;28;20233;-57
2022/04/02 07:09:14;;;;;;;4.23;2.07;;;3.00;99.90;;;3.90;71.24;-19859.50;5013799;28;20646;-58
2022/04/02 07:11:43;;;;;;;4.33;2.30;;;3.00;99.90;;;3.84;72.44;-19857.59;5014599;28;20404;-63
2022/04/02 07:14:11;;;;;;;3.40;2.13;;;2.90;99.90;;;3.90;71.79;-19859.66;5013972;28;20260;-57
2022/04/02 07:16:39;;;;;;;3.70;2.23;;;3.00;99.90;;;3.98;70.90;-19862.41;5013594;28;20241;-54
2022/04/02 07:19:11;;;;;;;3.87;2.60;;;3.00;99.90;;;3.82;71.70;-19856.94;5014364;28;20230;-56
2022/04/02 07:21:42;;;;;;;4.40;2.20;;;3.00;99.90;;;3.96;71.68;-19861.72;5014695;28;20183;-58
2022/04/02 07:24:12;;;;;;;3.47;2.07;;;3.00;99.90;;;4.10;70.31;-19866.50;5013643;28;20205;-57
2022/04/02 07:26:40;;;;;;;6.97;2.60;;;3.10;99.90;;;4.18;69.84;-19869.22;5016021;28;20210;-55
2022/04/02 07:29:10;;;;;;;4.07;2.17;;;3.30;99.90;;;4.22;69.79;-19870.59;5014131;28;20207;-56
2022/04/02 07:31:38;;;;;;;6.23;2.87;;;3.30;99.90;;;4.16;70.13;-19868.53;5014279;28;20205;-58
2022/04/02 07:34:06;;;;;;;3.33;2.07;;;3.20;99.90;;;4.26;70.13;-19871.97;5014518;28;20206;-57
2022/04/02 07:36:48;;;;;;;3.77;1.90;;;3.30;99.90;;;4.20;70.74;-19869.91;5014329;28;20317;-55
2022/04/02 07:39:23;;;;;;;2.77;2.00;;;3.30;99.90;;;4.51;69.08;-19880.34;5014207;28;20217;-56
2022/04/02 07:42:07;;;;;;;3.47;2.03;;;3.50;99.90;;;4.41;68.74;-19876.94;5014020;28;20770;-57
2022/04/02 07:44:56;;;;;;;3.43;2.27;;;3.50;99.90;;;4.62;68.34;-19884.28;5012231;28;20207;-58
2022/04/02 07:47:30;;;;;;;3.23;2.20;;;3.50;99.90;;;4.62;67.26;-19884.09;5008238;28;20206;-57
2022/04/02 07:50:04;;;;;;;4.13;2.03;;;3.70;99.90;;;4.45;67.17;-19878.47;5014338;28;20263;-56
2022/04/02 07:52:36;;;;;;;2.73;1.97;;;3.60;99.90;;;4.52;67.92;-19880.84;5013810;28;20228;-56
2022/04/02 07:55:08;;;;;;;3.00;2.23;;;3.60;99.90;;;4.73;66.57;-19888.03;5014050;28;20187;-60
2022/04/02 07:57:40;;;;;;;3.87;2.20;;;3.70;99.90;;;4.75;66.36;-19888.53;5014019;28;20183;-58
2022/04/02 08:00:12;;;;;;;4.17;2.23;;;3.70;99.90;;;4.81;65.83;-19890.78;5013546;28;20301;-56
2022/04/02 08:02:45;;;;;;;3.17;2.20;;;3.90;99.90;;;4.92;65.36;-19894.34;5013955;28;20272;-59
2022/04/02 08:05:16;;;;;;;2.97;2.20;;;3.80;99.90;;;5.02;63.46;-19897.78;5013642;28;20218;-58
2022/04/02 08:07:50;;;;;;;3.57;2.20;;;4.00;99.90;;;5.16;63.49;-19902.41;5013677;28;20214;-56
2022/04/02 08:10:21;;;;;;;6.17;2.80;;;4.10;99.90;;;5.32;62.85;-19907.84;5013563;28;20758;-57
2022/04/02 08:12:49;;;;;;;4.10;2.13;;;4.20;99.90;;;5.69;61.38;-19920.50;5013173;28;20282;-61
2022/04/02 08:15:20;;;;;;;3.30;2.03;;;4.40;99.90;;;5.67;60.68;-19920.00;5012087;28;20225;-56
2022/04/02 08:17:52;;;;;;;4.47;2.00;;;4.40;99.90;;;5.81;60.77;-19924.59;5001437;28;20291;-59
2022/04/02 08:20:20;;;;;;;6.27;3.20;;;4.60;99.90;;;6.09;60.46;-19934.19;4993695;28;20240;-58
2022/04/02 08:22:50;;;;;;;3.27;2.30;;;4.70;99.90;;;5.92;58.71;-19928.38;4993543;28;20689;-58
2022/04/02 08:25:19;;;;;;;4.37;3.07;;;4.70;99.90;;;5.78;57.93;-19923.59;4993585;28;20736;-54
2022/04/02 08:28:04;;;;;;;5.00;2.60;;;4.70;99.90;;;5.65;59.36;-19919.16;4993756;28;20295;-56
2022/04/02 08:30:35;;;;;;;3.43;2.47;;;4.60;99.90;;;5.57;57.98;-19916.56;4993364;28;20197;-56
2022/04/02 08:33:36;;;;;;;3.23;2.27;;;4.50;99.90;;;5.19;58.89;-19903.59;4993617;28;20198;-58
2022/04/02 08:36:18;;;;;;;2.90;2.13;;;4.40;99.90;;;5.07;58.16;-19899.31;4993355;28;20274;-56
2022/04/02 08:38:57;;;;;;;4.63;2.43;;;4.20;99.90;;;5.21;57.38;-19904.28;4993316;28;20195;-59
2022/04/02 08:42:38;;;;;;;4.03;2.20;;;4.20;99.90;;;5.65;55.80;-19919.16;4993319;28;20195;-58
2022/04/02 08:45:09;;;;;;;3.20;2.13;;;4.40;99.90;;;5.76;55.67;-19922.91;4992960;28;20195;-56
2022/04/02 08:48:26;;;;;;;4.80;2.20;;;4.50;99.90;;;5.67;55.67;-19919.81;5009508;28;20197;-54
2022/04/02 08:51:15;;;;;;;3.23;2.37;;;4.50;99.90;;;5.78;55.52;-19923.59;5012677;28;20219;-57
2022/04/02 08:54:04;;;;;;;4.10;2.37;;;4.60;99.90;;;5.89;55.79;-19927.34;5032132;28;20591;-57
2022/04/02 08:56:39;;;;;;;3.57;2.40;;;4.50;99.90;;;6.23;55.36;-19938.97;5032695;28;20678;-57
2022/04/02 08:59:09;;;;;;;4.20;2.33;;;4.80;99.90;;;6.55;54.87;-19949.91;5015509;28;20586;-57
2022/04/02 09:01:48;;;;;;;3.53;2.37;;;5.00;99.90;;;6.49;53.85;-19947.69;4993201;28;20196;-59
2022/04/02 09:05:02;;;;;;;3.17;2.10;;;5.20;99.90;;;6.59;53.83;-19951.09;4993395;28;20272;-56
2022/04/02 09:08:19;;;;;;;3.57;2.30;;;5.30;99.90;;;6.36;54.39;-19943.25;4994784;28;20225;-60
2022/04/02 09:11:24;;;;;;;3.03;2.00;;;5.30;99.90;;;6.48;53.73;-19947.50;5012082;28;20271;-61
2022/04/02 09:14:30;;;;;;;3.37;2.33;;;5.30;99.90;;;6.21;54.42;-19938.13;4951116;29;20238;-59
2022/04/02 09:17:15;;;;;;;7.90;2.27;;;5.30;99.90;;;6.03;54.58;-19932.31;5006445;28;20314;-60
2022/04/02 09:19:53;;;;;;;3.63;2.10;;;5.10;99.90;;;6.13;54.15;-19935.56;5011802;28;20315;-58
2022/04/02 09:22:35;;;;;;;4.10;2.23;;;5.10;99.90;;;6.19;53.69;-19937.59;5012877;28;20259;-58
2022/04/02 09:26:05;;;;;;;4.13;2.10;;;5.10;99.90;;;6.28;53.41;-19940.50;5011991;28;20235;-56
2022/04/02 09:29:15;;;;;;;3.90;2.50;;;5.20;99.90;;;6.63;53.26;-19952.63;5012040;28;20233;-57
2022/04/02 09:32:28;;;;;;;3.07;2.00;;;5.40;99.90;;;6.84;51.75;-19959.66;4992095;28;20567;-55
2022/04/02 09:35:48;;;;;;;5.23;2.60;;;5.60;99.90;;;6.56;51.22;-19950.25;4992595;28;20308;-56
2022/04/02 09:38:44;;;;;;;3.07;2.10;;;5.50;99.90;;;6.69;50.07;-19954.69;5009042;28;20308;-57
2022/04/02 09:41:28;;;;;;;3.17;2.23;;;5.50;99.90;;;6.44;50.94;-19946.16;5011876;28;20323;-63
2022/04/02 09:44:27;;;;;;;3.53;2.10;;;5.40;99.90;;;6.63;51.41;-19952.63;5011775;28;20255;-61
2022/04/02 09:47:06;;;;;;;2.27;1.93;;;5.50;99.90;;;6.92;51.02;-19962.56;5011857;28;20232;-60
2022/04/02 09:49:58;;;;;;;3.03;1.90;;;5.60;99.90;;;6.70;50.29;-19955.03;5011872;28;20230;-62
2022/04/02 09:52:27;;;;;;;2.40;2.20;;;5.60;99.90;;;6.71;50.80;-19955.22;5011954;28;20312;-61
2022/04/02 09:55:10;;;;;;;4.90;2.30;;;5.70;99.90;;;7.23;50.31;-19973.16;5012310;28;20256;-61
2022/04/02 09:58:23;;;;;;;4.47;3.23;;;5.80;99.90;;;7.60;48.05;-19985.63;5012202;28;20332;-62
2022/04/02 10:01:05;;;;;;;3.47;2.43;;;6.10;99.90;;;7.34;48.14;-19976.72;5011846;28;20232;-63
2022/04/02 10:03:45;;;;;;;3.27;2.80;;;6.10;99.90;;;7.30;48.17;-19975.38;5012119;28;20226;-61
2022/04/02 10:06:24;;;;;;;2.57;1.93;;;6.20;99.90;;;6.78;48.34;-19957.75;5011749;28;20225;-62
2022/04/02 10:09:07;;;;;;;2.83;1.97;;;6.00;99.90;;;6.85;48.23;-19960.16;5012448;28;20687;-61
2022/04/02 10:11:42;;;;;;;2.27;2.07;;;5.80;99.90;;;7.01;48.00;-19965.47;5012449;28;20226;-62
2022/04/02 10:14:11;;;;;;;3.50;2.80;;;5.80;99.90;;;7.20;47.08;-19972.13;5011861;28;20312;-60
2022/04/02 10:16:42;;;;;;;4.30;2.30;;;5.90;99.90;;;7.24;47.74;-19973.50;5011573;28;20252;-56
2022/04/02 10:19:11;;;;;;;2.77;2.40;;;5.90;99.90;;;7.73;46.74;-19989.91;5012283;28;20230;-59
2022/04/02 10:21:40;;;;;;;2.57;2.37;;;6.20;99.90;;;7.55;46.60;-19983.91;5011345;28;20333;-60
2022/04/02 10:24:23;;;;;;;3.17;2.30;;;6.20;99.90;;;7.23;47.28;-19972.97;5011352;28;20245;-61
2022/04/02 10:26:55;;;;;;;4.00;2.50;;;6.00;99.90;;;7.31;46.85;-19975.88;5008365;28;20195;-61
2022/04/02 10:29:55;;;;;;;2.23;2.03;;;6.10;99.90;;;7.09;46.55;-19968.19;5011424;28;20228;-59
2022/04/02 10:32:54;;;;;;;2.13;1.90;;;6.00;99.90;;;7.36;46.46;-19977.59;5011471;28;20720;-60
2022/04/02 10:35:25;;;;;;;2.47;2.27;;;6.20;99.90;;;7.59;46.41;-19985.28;4980054;28;20317;-58
2022/04/02 10:38:08;;;;;;;2.37;2.10;;;6.30;99.90;;;7.36;45.90;-19977.41;4992203;28;20233;-60
2022/04/02 10:40:46;;;;;;;4.27;2.63;;;6.20;99.90;;;7.69;45.15;-19988.69;5001206;28;20221;-61
2022/04/02 10:43:26;;;;;;;4.20;2.50;;;6.20;99.90;;;7.98;44.96;-19998.59;5014807;28;20280;-61
2022/04/02 10:45:56;;;;;;;2.37;2.17;;;6.40;99.90;;;7.61;45.77;-19985.97;5015148;28;20651;-62
2022/04/02 10:48:54;;;;;;;2.30;2.10;;;6.60;99.90;;;7.74;46.75;-19990.22;5015041;28;20547;-60
2022/04/02 10:51:25;;;;;;;2.83;2.07;;;6.50;99.90;;;7.26;47.83;-19974.19;5015109;28;20185;-61
2022/04/02 10:54:02;;;;;;;2.67;2.10;;;6.30;99.90;;;7.65;47.81;-19987.16;5015582;28;20292;-59
2022/04/02 10:56:35;;;;;;;2.50;2.10;;;6.40;99.90;;;7.66;47.30;-19987.66;5014867;28;20256;-61